Weather at Hermiston Municipal Airport

Public forecast

Using degrees Fahrenheit for public forecast. Weather courtesy of forecast.io.

Current aviation weather report (METAR) for Hermiston Municipal Airport

2022/11/30 09:53 (retrieved 20 minutes ago)

KHRI 300953Z AUTO 16015G24KT 10SM BKN070 OVC085 08/M02 A2963 RMK AO2 PK WND 16026/0905 SLP035 T00781017

Closest aviation forecast (TAF) to Hermiston Municipal Airport

Closest forecast is Eastern Oregon Regional Airport at Pendleton, 19.2 nm (35.6 km) ESE.

2022/11/30 09:09 Ammendment (retrieved 1 hour ago)

TAF AMD KPDT 300905Z 3009/0106 16015G23KT P6SM OVC050 FM301200 20014KT P6SM OVC040 FM301800 22010KT 6SM -RA OVC030 FM010000 27008KT 6SM -SN OVC015 FM010100 02007KT 4SM -SN BR OVC015 FM010400 06005KT 2SM -SN BR OVC015